Le Laurabrenn — FU4171 — position and weather

sailwx.info

Track history (hours):
 
Tides and Currents Weather Stations Pressure Air Temp Water Temp Dewpoint Dewpoint Depression Visibility Wind Speed Wind Dir Waves Ship Positions

Le Laurabrenn

Last reported at 2017-Nov-17 21:38 UTC. Time now 2017-Nov-23 07:45 UTC.
Position N 47°50' W 004°08'.

Length 12 m.

Type: Fishing. MMSI: 228941000.

Date/timePositionNaut miles runAvg speedWind from/ knotsBaromVisibWave heightAir tempDewpointWater temp
2017-Nov-17 21:38N 47°50' W 004°08'25 1.6
2017-Nov-17 06:08N 47°35' W 003°37'1 2.3
2017-Nov-17 05:55N 47°36' W 003°37'1 2.7
2017-Nov-17 05:30N 47°37' W 003°38'18 6.0
2017-Nov-17 02:33N 47°50' W 003°56'17 2.7
2017-Nov-16 20:18N 47°36' W 003°42'3 3.3
2017-Nov-16 19:27N 47°34' W 003°39'2 3.2
2017-Nov-16 18:53N 47°33' W 003°37'2 3.4
2017-Nov-16 18:22N 47°32' W 003°35'1 3.4
2017-Nov-16 17:59N 47°30' W 003°34'1 1.1
2017-Nov-16 17:27N 47°30' W 003°33'3 1.5
2017-Nov-16 15:20N 47°33' W 003°35'1 3.4
2017-Nov-16 15:00N 47°33' W 003°37'2 3.4
2017-Nov-16 14:29N 47°34' W 003°39'1 2.5
2017-Nov-16 13:59N 47°34' W 003°37'2 3.5
2017-Nov-16 13:27N 47°33' W 003°38'1 1.8
2017-Nov-16 12:59N 47°33' W 003°36'2 3.2
2017-Nov-16 12:27N 47°32' W 003°34'1 2.2
2017-Nov-16 11:47N 47°32' W 003°32'1 3.4
2017-Nov-16 11:30N 47°33' W 003°31'1 3.0
2017-Nov-16 11:00N 47°34' W 003°33'2 3.6
2017-Nov-16 10:30N 47°35' W 003°35'1 0.3
2017-Nov-16 07:36N 47°36' W 003°34'0 3.3
2017-Nov-16 07:30N 47°35' W 003°35'1 2.9
2017-Nov-16 07:00N 47°34' W 003°36'1 1.8
2017-Nov-16 06:30N 47°35' W 003°36'2 3.1
2017-Nov-16 05:51N 47°36' W 003°39'1 1.4
2017-Nov-16 05:23N 47°37' W 003°40'16 3.5
2017-Nov-16 00:48N 47°49' W 003°56'12 3.0
2017-Nov-15 20:43N 47°38' W 003°48'7 3.0
2017-Nov-15 18:22N 47°34' W 003°40'1 2.2
2017-Nov-15 17:51N 47°33' W 003°38'0 1.0
2017-Nov-15 17:30N 47°33' W 003°38'2 2.9
2017-Nov-15 16:52N 47°35' W 003°38'1 2.8
2017-Nov-15 16:22N 47°35' W 003°36'1 1.7
2017-Nov-15 16:00N 47°35' W 003°36'2 3.2
2017-Nov-15 15:30N 47°36' W 003°37'1 2.7
2017-Nov-15 14:59N 47°35' W 003°39'1 1.2
2017-Nov-15 13:55N 47°34' W 003°37'2 2.0
2017-Nov-15 13:00N 47°33' W 003°39'1 2.8
2017-Nov-15 12:30N 47°33' W 003°38'2 3.4
2017-Nov-15 11:59N 47°35' W 003°39'1 2.7
2017-Nov-15 11:30N 47°35' W 003°37'1 2.3
2017-Nov-15 10:58N 47°34' W 003°36'2 3.2
2017-Nov-15 10:29N 47°36' W 003°37'2 3.5
2017-Nov-15 09:59N 47°36' W 003°40'1 2.5
2017-Nov-15 09:30N 47°35' W 003°40'1 2.8
2017-Nov-15 09:00N 47°33' W 003°39'1 1.1
2017-Nov-15 08:30N 47°33' W 003°38'2 3.3
2017-Nov-15 08:00N 47°35' W 003°39'1 2.5
2017-Nov-15 07:30N 47°36' W 003°38'2 3.1
2017-Nov-15 07:00N 47°34' W 003°36'1 1.9
2017-Nov-15 06:30N 47°35' W 003°37'2 3.5
2017-Nov-15 06:00N 47°36' W 003°39'2 3.9
2017-Nov-15 05:30N 47°38' W 003°40'4 5.4
2017-Nov-15 04:50N 47°40' W 003°44'5 4.9
2017-Nov-15 03:50N 47°44' W 003°49'6 5.0
2017-Nov-15 02:33N 47°49' W 003°55'4 1.4
2017-Nov-14 23:58N 47°46' W 003°54'14 3.7
2017-Nov-14 20:19N 47°35' W 003°40'1 3.0
2017-Nov-14 19:59N 47°35' W 003°39'2 2.5
2017-Nov-14 19:20N 47°35' W 003°36'1 1.7
2017-Nov-14 19:00N 47°35' W 003°36'2 3.5
2017-Nov-14 18:29N 47°36' W 003°38'2 1.1
2017-Nov-14 16:21N 47°33' W 003°38'2 3.4
2017-Nov-14 15:54N 47°35' W 003°39'2 1.2
2017-Nov-14 14:24N 47°35' W 003°36'0 0.4
2017-Nov-14 13:44N 47°35' W 003°37'1 2.8
2017-Nov-14 13:30N 47°35' W 003°37'0 1.0
2017-Nov-14 13:00N 47°35' W 003°36'2 3.4
2017-Nov-14 12:30N 47°36' W 003°38'3 2.9
2017-Nov-14 11:35N 47°33' W 003°39'1 3.1
2017-Nov-14 11:15N 47°33' W 003°38'1 2.4
2017-Nov-14 10:57N 47°34' W 003°38'2 3.7
2017-Nov-14 10:29N 47°35' W 003°39'3 1.3
2017-Nov-14 08:33N 47°34' W 003°43'0 3.8
2017-Nov-14 08:29N 47°34' W 003°43'0 0.6
2017-Nov-14 08:00N 47°33' W 003°43'2 3.2
2017-Nov-14 07:30N 47°34' W 003°41'2 2.8
2017-Nov-14 06:57N 47°35' W 003°40'2 3.5
2017-Nov-14 06:17N 47°36' W 003°43'1 2.5
2017-Nov-14 05:53N 47°37' W 003°43'14 6.0
2017-Nov-14 03:38N 47°49' W 003°55'  
2017-Nov-09 19:38N 47°47' W 004°01'5 0.2
2017-Nov-08 22:58N 47°50' W 003°55'23 1.8
2017-Nov-08 10:01N 47°28' W 003°41'0 2.2
2017-Nov-08 09:59N 47°28' W 003°41'0 0.1
2017-Nov-08 05:50N 47°29' W 003°41'1 3.7
2017-Nov-08 05:30N 47°30' W 003°42'3 5.9
2017-Nov-08 04:58N 47°33' W 003°44'  
Track history (hours):
 
Tides and Currents Weather Stations Pressure Air Temp Water Temp Dewpoint Dewpoint Depression Visibility Wind Speed Wind Dir Waves Ship Positions

Le Laurabrenn

Last reported at 2017-Nov-17 21:38 UTC. Time now 2017-Nov-23 07:45 UTC.
Position N 47°50' W 004°08'.

Length 12 m.

Type: Fishing. MMSI: 228941000.

Date/timePositionNaut miles runAvg speedWind from/ knotsBaromVisibWave heightAir tempDewpointWater temp
2017-Nov-17 21:38N 47°50' W 004°08'25 1.6
2017-Nov-17 06:08N 47°35' W 003°37'1 2.3
2017-Nov-17 05:55N 47°36' W 003°37'1 2.7
2017-Nov-17 05:30N 47°37' W 003°38'18 6.0
2017-Nov-17 02:33N 47°50' W 003°56'17 2.7
2017-Nov-16 20:18N 47°36' W 003°42'3 3.3
2017-Nov-16 19:27N 47°34' W 003°39'2 3.2
2017-Nov-16 18:53N 47°33' W 003°37'2 3.4
2017-Nov-16 18:22N 47°32' W 003°35'1 3.4
2017-Nov-16 17:59N 47°30' W 003°34'1 1.1
2017-Nov-16 17:27N 47°30' W 003°33'3 1.5
2017-Nov-16 15:20N 47°33' W 003°35'1 3.4
2017-Nov-16 15:00N 47°33' W 003°37'2 3.4
2017-Nov-16 14:29N 47°34' W 003°39'1 2.5
2017-Nov-16 13:59N 47°34' W 003°37'2 3.5
2017-Nov-16 13:27N 47°33' W 003°38'1 1.8
2017-Nov-16 12:59N 47°33' W 003°36'2 3.2
2017-Nov-16 12:27N 47°32' W 003°34'1 2.2
2017-Nov-16 11:47N 47°32' W 003°32'1 3.4
2017-Nov-16 11:30N 47°33' W 003°31'1 3.0
2017-Nov-16 11:00N 47°34' W 003°33'2 3.6
2017-Nov-16 10:30N 47°35' W 003°35'1 0.3
2017-Nov-16 07:36N 47°36' W 003°34'0 3.3
2017-Nov-16 07:30N 47°35' W 003°35'1 2.9
2017-Nov-16 07:00N 47°34' W 003°36'1 1.8
2017-Nov-16 06:30N 47°35' W 003°36'2 3.1
2017-Nov-16 05:51N 47°36' W 003°39'1 1.4
2017-Nov-16 05:23N 47°37' W 003°40'16 3.5
2017-Nov-16 00:48N 47°49' W 003°56'12 3.0
2017-Nov-15 20:43N 47°38' W 003°48'7 3.0
2017-Nov-15 18:22N 47°34' W 003°40'1 2.2
2017-Nov-15 17:51N 47°33' W 003°38'0 1.0
2017-Nov-15 17:30N 47°33' W 003°38'2 2.9
2017-Nov-15 16:52N 47°35' W 003°38'1 2.8
2017-Nov-15 16:22N 47°35' W 003°36'1 1.7
2017-Nov-15 16:00N 47°35' W 003°36'2 3.2
2017-Nov-15 15:30N 47°36' W 003°37'1 2.7
2017-Nov-15 14:59N 47°35' W 003°39'1 1.2
2017-Nov-15 13:55N 47°34' W 003°37'2 2.0
2017-Nov-15 13:00N 47°33' W 003°39'1 2.8
2017-Nov-15 12:30N 47°33' W 003°38'2 3.4
2017-Nov-15 11:59N 47°35' W 003°39'1 2.7
2017-Nov-15 11:30N 47°35' W 003°37'1 2.3
2017-Nov-15 10:58N 47°34' W 003°36'2 3.2
2017-Nov-15 10:29N 47°36' W 003°37'2 3.5
2017-Nov-15 09:59N 47°36' W 003°40'1 2.5
2017-Nov-15 09:30N 47°35' W 003°40'1 2.8
2017-Nov-15 09:00N 47°33' W 003°39'1 1.1
2017-Nov-15 08:30N 47°33' W 003°38'2 3.3
2017-Nov-15 08:00N 47°35' W 003°39'1 2.5
2017-Nov-15 07:30N 47°36' W 003°38'2 3.1
2017-Nov-15 07:00N 47°34' W 003°36'1 1.9
2017-Nov-15 06:30N 47°35' W 003°37'2 3.5
2017-Nov-15 06:00N 47°36' W 003°39'2 3.9
2017-Nov-15 05:30N 47°38' W 003°40'4 5.4
2017-Nov-15 04:50N 47°40' W 003°44'5 4.9
2017-Nov-15 03:50N 47°44' W 003°49'6 5.0
2017-Nov-15 02:33N 47°49' W 003°55'4 1.4
2017-Nov-14 23:58N 47°46' W 003°54'14 3.7
2017-Nov-14 20:19N 47°35' W 003°40'1 3.0
2017-Nov-14 19:59N 47°35' W 003°39'2 2.5
2017-Nov-14 19:20N 47°35' W 003°36'1 1.7
2017-Nov-14 19:00N 47°35' W 003°36'2 3.5
2017-Nov-14 18:29N 47°36' W 003°38'2 1.1
2017-Nov-14 16:21N 47°33' W 003°38'2 3.4
2017-Nov-14 15:54N 47°35' W 003°39'2 1.2
2017-Nov-14 14:24N 47°35' W 003°36'0 0.4
2017-Nov-14 13:44N 47°35' W 003°37'1 2.8
2017-Nov-14 13:30N 47°35' W 003°37'0 1.0
2017-Nov-14 13:00N 47°35' W 003°36'2 3.4
2017-Nov-14 12:30N 47°36' W 003°38'3 2.9
2017-Nov-14 11:35N 47°33' W 003°39'1 3.1
2017-Nov-14 11:15N 47°33' W 003°38'1 2.4
2017-Nov-14 10:57N 47°34' W 003°38'2 3.7
2017-Nov-14 10:29N 47°35' W 003°39'3 1.3
2017-Nov-14 08:33N 47°34' W 003°43'0 3.8
2017-Nov-14 08:29N 47°34' W 003°43'0 0.6
2017-Nov-14 08:00N 47°33' W 003°43'2 3.2
2017-Nov-14 07:30N 47°34' W 003°41'2 2.8
2017-Nov-14 06:57N 47°35' W 003°40'2 3.5
2017-Nov-14 06:17N 47°36' W 003°43'1 2.5
2017-Nov-14 05:53N 47°37' W 003°43'14 6.0
2017-Nov-14 03:38N 47°49' W 003°55'  
2017-Nov-09 19:38N 47°47' W 004°01'5 0.2
2017-Nov-08 22:58N 47°50' W 003°55'23 1.8
2017-Nov-08 10:01N 47°28' W 003°41'0 2.2
2017-Nov-08 09:59N 47°28' W 003°41'0 0.1
2017-Nov-08 05:50N 47°29' W 003°41'1 3.7
2017-Nov-08 05:30N 47°30' W 003°42'3 5.9
2017-Nov-08 04:58N 47°33' W 003°44'  

Dump ship's entire track history